Time;durP1;ratioP1;P1;durP2;ratioP2;P2;SDS_P1;SDS_P2;PMS_P1;PMS_P2;Temp;Humidity;BMP_temperature;BMP_pressure;BME280_temperature;BME280_humidity;BME280_pressure;Samples;Min_cycle;Max_cycle;Signal;HPM_P1;HPM_P2
2021/12/28 00:01:10;;;;;;;;;;;21.30;48.00;;;;;;1564789;76;699;-61
2021/12/28 00:03:11;;;;;;;;;;;21.30;48.00;;;;;;1563731;76;1788;-62
2021/12/28 00:05:14;;;;;;;;;;;21.30;48.00;;;;;;1536878;76;771;-61
2021/12/28 00:07:15;;;;;;;;;;;21.30;48.00;;;;;;1538548;77;745;-61
2021/12/28 00:09:17;;;;;;;;;;;21.30;48.00;;;;;;1538495;77;1220;-61
2021/12/28 00:11:19;;;;;;;;;;;21.30;47.90;;;;;;1538657;77;1943;-60
2021/12/28 00:13:21;;;;;;;;;;;21.30;47.90;;;;;;1538594;77;706;-61
2021/12/28 00:19:49;;;;;;;;;;;21.30;47.90;;;;;;1538568;77;1561;-61
2021/12/28 00:21:51;;;;;;;;;;;21.30;47.90;;;;;;1516988;78;1170;-60
2021/12/28 00:23:53;;;;;;;;;;;21.30;48.00;;;;;;1571027;76;883;-62
2021/12/28 00:25:55;;;;;;;;;;;21.30;48.00;;;;;;1570875;76;765;-62
2021/12/28 00:27:57;;;;;;;;;;;21.30;48.00;;;;;;1571002;76;1113;-61
2021/12/28 00:29:59;;;;;;;;;;;21.30;47.90;;;;;;1570938;76;1934;-60
2021/12/28 00:32:01;;;;;;;;;;;21.30;48.00;;;;;;1571038;76;776;-61
2021/12/28 00:34:02;;;;;;;;;;;21.30;48.00;;;;;;1571013;76;719;-61
2021/12/28 00:36:05;;;;;;;;;;;21.30;48.00;;;;;;1570881;76;770;-61
2021/12/28 00:38:07;;;;;;;;;;;21.30;48.00;;;;;;1570889;76;1136;-61
2021/12/28 00:40:09;;;;;;;;;;;21.30;47.90;;;;;;1570861;76;813;-61
2021/12/28 00:42:11;;;;;;;;;;;21.30;47.90;;;;;;1570938;76;717;-61
2021/12/28 00:44:14;;;;;;;;;;;21.30;48.00;;;;;;1570866;76;784;-60
2021/12/28 00:46:16;;;;;;;;;;;21.30;48.00;;;;;;1570895;76;789;-62
2021/12/28 00:48:18;;;;;;;;;;;21.30;48.00;;;;;;1570974;76;1077;-62
2021/12/28 00:50:20;;;;;;;;;;;21.30;48.00;;;;;;1570869;76;1942;-61
2021/12/28 00:52:22;;;;;;;;;;;21.30;48.00;;;;;;1571086;76;725;-62
2021/12/28 00:54:24;;;;;;;;;;;21.30;48.00;;;;;;1570843;76;702;-61
2021/12/28 00:56:26;;;;;;;;;;;21.30;48.00;;;;;;1570956;76;725;-60
2021/12/28 00:58:28;;;;;;;;;;;21.30;48.00;;;;;;1571005;76;1128;-60
2021/12/28 01:00:31;;;;;;;;;;;21.30;48.00;;;;;;1570828;76;657;-60
2021/12/28 01:02:33;;;;;;;;;;;21.30;47.90;;;;;;1570932;76;783;-60
2021/12/28 01:04:35;;;;;;;;;;;21.30;48.00;;;;;;1586942;74;819;-60
2021/12/28 01:06:37;;;;;;;;;;;21.30;48.00;;;;;;1598336;74;730;-61
2021/12/28 01:08:38;;;;;;;;;;;21.30;48.00;;;;;;1598313;74;1142;-61
2021/12/28 01:10:43;;;;;;;;;;;21.30;48.00;;;;;;1598206;74;1927;-60
2021/12/28 01:12:45;;;;;;;;;;;21.30;48.00;;;;;;1598197;74;940;-61
2021/12/28 01:14:47;;;;;;;;;;;21.30;48.00;;;;;;1598394;74;715;-61
2021/12/28 01:16:48;;;;;;;;;;;21.30;48.00;;;;;;1598387;74;660;-60
2021/12/28 01:18:50;;;;;;;;;;;21.30;48.00;;;;;;1598415;74;1110;-61
2021/12/28 01:20:52;;;;;;;;;;;21.30;47.90;;;;;;1598326;74;696;-63
2021/12/28 01:22:54;;;;;;;;;;;21.30;48.00;;;;;;1598322;74;743;-61
2021/12/28 01:24:56;;;;;;;;;;;21.30;48.00;;;;;;1598375;74;765;-61
2021/12/28 01:26:58;;;;;;;;;;;21.30;48.00;;;;;;1598431;74;767;-61
2021/12/28 01:29:00;;;;;;;;;;;21.30;48.00;;;;;;1598412;74;1112;-61
2021/12/28 01:31:02;;;;;;;;;;;21.30;48.00;;;;;;1598308;74;1949;-61
2021/12/28 01:33:04;;;;;;;;;;;21.30;48.00;;;;;;1598237;74;702;-60
2021/12/28 01:35:06;;;;;;;;;;;21.30;48.00;;;;;;1598459;74;720;-59
2021/12/28 01:37:08;;;;;;;;;;;21.30;48.00;;;;;;1598252;74;638;-61
2021/12/28 01:39:11;;;;;;;;;;;21.30;48.00;;;;;;1598315;74;1092;-61
2021/12/28 01:41:13;;;;;;;;;;;21.30;48.00;;;;;;1598293;74;752;-61
2021/12/28 01:43:15;;;;;;;;;;;21.30;48.00;;;;;;1598332;74;869;-61
2021/12/28 01:45:17;;;;;;;;;;;21.30;47.90;;;;;;1598252;74;698;-60
2021/12/28 01:47:19;;;;;;;;;;;21.30;47.90;;;;;;1598364;74;759;-61
2021/12/28 01:49:21;;;;;;;;;;;21.30;48.00;;;;;;1598302;74;732;-60
2021/12/28 01:51:23;;;;;;;;;;;21.30;47.90;;;;;;1598286;74;1941;-61
2021/12/28 01:53:25;;;;;;;;;;;21.30;48.00;;;;;;1598383;74;715;-60
2021/12/28 01:55:27;;;;;;;;;;;21.30;47.90;;;;;;1598395;74;641;-61
2021/12/28 01:57:29;;;;;;;;;;;21.30;48.00;;;;;;1598342;74;1067;-61
2021/12/28 01:59:30;;;;;;;;;;;21.30;48.00;;;;;;1598438;74;735;-62
2021/12/28 02:01:32;;;;;;;;;;;21.30;48.00;;;;;;1598211;74;786;-60
2021/12/28 02:03:36;;;;;;;;;;;21.30;48.00;;;;;;1597928;74;784;-61
2021/12/28 02:05:38;;;;;;;;;;;21.30;48.00;;;;;;1593759;74;676;-61
2021/12/28 02:07:40;;;;;;;;;;;21.30;48.00;;;;;;1593716;74;1157;-59
2021/12/28 02:09:41;;;;;;;;;;;21.30;48.00;;;;;;1593898;74;662;-60
2021/12/28 02:11:43;;;;;;;;;;;21.20;47.80;;;;;;1593784;74;1949;-62
2021/12/28 02:13:45;;;;;;;;;;;21.20;47.80;;;;;;1593897;74;786;-60
2021/12/28 02:15:47;;;;;;;;;;;21.30;48.00;;;;;;1593759;74;792;-61
2021/12/28 02:17:49;;;;;;;;;;;21.30;48.00;;;;;;1593687;74;1094;-61
2021/12/28 02:19:51;;;;;;;;;;;21.30;48.00;;;;;;1593927;74;738;-60
2021/12/28 02:21:54;;;;;;;;;;;21.30;48.00;;;;;;1593817;74;788;-60
2021/12/28 02:23:55;;;;;;;;;;;21.30;48.00;;;;;;1593816;74;709;-61
2021/12/28 02:25:57;;;;;;;;;;;21.30;48.00;;;;;;1593797;74;764;-60
2021/12/28 02:27:59;;;;;;;;;;;21.30;48.00;;;;;;1593789;74;1114;-61
2021/12/28 02:30:02;;;;;;;;;;;21.30;48.00;;;;;;1593805;74;710;-61
2021/12/28 02:32:04;;;;;;;;;;;21.30;48.00;;;;;;1593674;74;1937;-60
2021/12/28 02:34:06;;;;;;;;;;;21.20;47.80;;;;;;1593812;74;771;-61
2021/12/28 02:36:08;;;;;;;;;;;21.20;47.80;;;;;;1593791;74;713;-61
2021/12/28 02:38:11;;;;;;;;;;;21.40;48.00;;;;;;1593758;74;1132;-61
2021/12/28 02:40:13;;;;;;;;;;;21.20;47.80;;;;;;1593799;74;763;-61
2021/12/28 02:42:16;;;;;;;;;;;21.30;47.90;;;;;;1593729;74;692;-62
2021/12/28 02:44:18;;;;;;;;;;;21.20;47.80;;;;;;1593790;74;723;-61
2021/12/28 02:46:20;;;;;;;;;;;21.20;47.80;;;;;;1593825;74;695;-61
2021/12/28 02:48:22;;;;;;;;;;;21.30;47.90;;;;;;1593745;74;1108;-61
2021/12/28 02:50:31;;;;;;;;;;;21.30;47.90;;;;;;1593840;74;721;-62
2021/12/28 02:52:36;;;;;;;;;;;21.30;47.90;;;;;;1592082;74;1937;-61
2021/12/28 02:54:38;;;;;;;;;;;21.20;47.80;;;;;;1593811;74;684;-62
2021/12/28 02:56:40;;;;;;;;;;;21.30;47.90;;;;;;1593749;74;787;-61
2021/12/28 02:58:44;;;;;;;;;;;21.20;47.80;;;;;;1575080;74;1191;-62
2021/12/28 03:00:46;;;;;;;;;;;21.20;47.80;;;;;;1570945;76;830;-60
2021/12/28 03:02:49;;;;;;;;;;;21.20;47.80;;;;;;1570984;76;789;-63
2021/12/28 03:04:50;;;;;;;;;;;21.30;47.90;;;;;;1570920;76;653;-62
2021/12/28 03:06:52;;;;;;;;;;;21.20;47.80;;;;;;1570978;76;756;-60
2021/12/28 03:08:55;;;;;;;;;;;21.20;47.80;;;;;;1570998;76;1153;-60
2021/12/28 03:10:57;;;;;;;;;;;21.20;47.80;;;;;;1570951;76;1928;-61
2021/12/28 03:12:59;;;;;;;;;;;21.30;47.90;;;;;;1571022;76;713;-61
2021/12/28 03:15:01;;;;;;;;;;;21.20;47.70;;;;;;1570974;76;666;-59
2021/12/28 03:17:03;;;;;;;;;;;21.30;47.90;;;;;;1571031;76;764;-59
2021/12/28 03:19:05;;;;;;;;;;;21.20;47.80;;;;;;1570904;76;1085;-61
2021/12/28 03:21:07;;;;;;;;;;;21.20;47.80;;;;;;1571048;76;772;-61
2021/12/28 03:23:09;;;;;;;;;;;21.20;47.80;;;;;;1570988;76;837;-61
2021/12/28 03:25:11;;;;;;;;;;;21.20;47.80;;;;;;1570930;76;716;-61
2021/12/28 03:27:13;;;;;;;;;;;21.20;47.80;;;;;;1570967;76;752;-61
2021/12/28 03:29:15;;;;;;;;;;;21.20;47.80;;;;;;1570985;76;1105;-61
2021/12/28 03:31:18;;;;;;;;;;;21.30;47.90;;;;;;1571030;76;1928;-60
2021/12/28 03:33:20;;;;;;;;;;;21.20;47.80;;;;;;1571000;76;739;-61
2021/12/28 03:35:22;;;;;;;;;;;21.20;47.80;;;;;;1570864;76;745;-60
2021/12/28 03:37:24;;;;;;;;;;;21.30;47.90;;;;;;1571132;76;1120;-60
2021/12/28 03:39:26;;;;;;;;;;;21.20;47.80;;;;;;1570961;76;719;-60
2021/12/28 03:41:28;;;;;;;;;;;21.30;47.90;;;;;;1570937;76;764;-62
2021/12/28 03:43:30;;;;;;;;;;;21.30;47.90;;;;;;1592208;73;638;-61
2021/12/28 03:45:32;;;;;;;;;;;21.20;47.80;;;;;;1595352;74;776;-61
2021/12/28 03:47:34;;;;;;;;;;;21.30;47.90;;;;;;1597220;74;1142;-61
2021/12/28 03:49:35;;;;;;;;;;;21.20;47.80;;;;;;1597223;74;728;-61
2021/12/28 03:51:37;;;;;;;;;;;21.20;47.80;;;;;;1597245;74;1944;-60
2021/12/28 03:53:39;;;;;;;;;;;21.30;47.90;;;;;;1597320;74;740;-61
2021/12/28 03:55:41;;;;;;;;;;;21.30;47.90;;;;;;1597077;74;782;-60
2021/12/28 03:57:43;;;;;;;;;;;21.30;47.80;;;;;;1588714;73;1170;-62
2021/12/28 03:59:45;;;;;;;;;;;21.20;47.70;;;;;;1582945;74;694;-61
2021/12/28 04:01:47;;;;;;;;;;;21.30;47.90;;;;;;1570954;76;704;-61
2021/12/28 04:03:49;;;;;;;;;;;21.30;47.90;;;;;;1571094;76;712;-61
2021/12/28 04:05:51;;;;;;;;;;;21.20;47.80;;;;;;1570907;76;772;-62
2021/12/28 04:07:53;;;;;;;;;;;21.30;47.80;;;;;;1570947;76;1125;-62
2021/12/28 04:11:58;;;;;;;;;;;21.20;47.80;;;;;;1570933;76;1908;-61
2021/12/28 04:14:01;;;;;;;;;;;21.20;47.80;;;;;;1571057;76;705;-61
2021/12/28 04:16:03;;;;;;;;;;;21.30;47.90;;;;;;1570869;76;687;-63
2021/12/28 04:18:05;;;;;;;;;;;21.30;47.90;;;;;;1570947;76;1121;-61
2021/12/28 04:20:09;;;;;;;;;;;21.30;47.80;;;;;;1571055;76;756;-62
2021/12/28 04:22:11;;;;;;;;;;;21.30;47.90;;;;;;1570919;76;641;-61
2021/12/28 04:24:13;;;;;;;;;;;21.30;47.90;;;;;;1571061;76;749;-61
2021/12/28 04:26:15;;;;;;;;;;;21.20;47.80;;;;;;1570909;76;744;-61
2021/12/28 04:28:17;;;;;;;;;;;21.30;47.90;;;;;;1571076;76;1159;-61
2021/12/28 04:30:18;;;;;;;;;;;21.20;47.80;;;;;;1571069;76;767;-61
2021/12/28 04:32:20;;;;;;;;;;;21.30;47.80;;;;;;1570892;76;1960;-61
2021/12/28 04:34:22;;;;;;;;;;;21.20;47.70;;;;;;1571067;76;799;-61
2021/12/28 04:36:24;;;;;;;;;;;21.20;47.70;;;;;;1570899;76;800;-61
2021/12/28 04:38:26;;;;;;;;;;;21.20;47.70;;;;;;1571155;72;2018;-64
2021/12/28 04:40:28;;;;;;;;;;;21.20;47.80;;;;;;1540540;76;701;-64
2021/12/28 04:42:30;;;;;;;;;;;21.20;47.80;;;;;;1558769;76;786;-64
2021/12/28 04:44:32;;;;;;;;;;;21.20;47.80;;;;;;1560485;76;835;-64
2021/12/28 04:46:34;;;;;;;;;;;21.30;47.90;;;;;;1560396;75;717;-64
2021/12/28 04:48:36;;;;;;;;;;;21.30;47.90;;;;;;1558856;76;1194;-64
2021/12/28 04:50:40;;;;;;;;;;;21.20;47.80;;;;;;1553016;76;745;-64
2021/12/28 04:52:41;;;;;;;;;;;21.20;47.80;;;;;;1548924;76;1923;-65
2021/12/28 04:54:44;;;;;;;;;;;21.30;47.90;;;;;;1546833;76;735;-65
2021/12/28 04:56:46;;;;;;;;;;;21.30;47.90;;;;;;1552751;76;720;-65
2021/12/28 04:58:48;;;;;;;;;;;21.20;47.80;;;;;;1541186;76;1124;-66
2021/12/28 05:00:50;;;;;;;;;;;21.20;47.80;;;;;;1539516;77;771;-67
2021/12/28 05:02:52;;;;;;;;;;;21.20;47.70;;;;;;1539277;77;795;-65
2021/12/28 05:04:54;;;;;;;;;;;21.20;47.80;;;;;;1539517;77;732;-65
2021/12/28 05:06:55;;;;;;;;;;;21.20;47.80;;;;;;1539363;77;728;-65
2021/12/28 05:08:57;;;;;;;;;;;21.20;47.80;;;;;;1539495;77;1211;-65
2021/12/28 05:10:59;;;;;;;;;;;21.30;47.80;;;;;;1539493;77;771;-65
2021/12/28 05:13:01;;;;;;;;;;;21.30;47.90;;;;;;1539350;77;1939;-65
2021/12/28 05:15:05;;;;;;;;;;;21.30;47.90;;;;;;1539376;77;732;-65
2021/12/28 05:17:06;;;;;;;;;;;21.20;47.70;;;;;;1539340;77;1166;-65
2021/12/28 05:19:08;;;;;;;;;;;21.30;47.90;;;;;;1539448;77;1103;-65
2021/12/28 05:21:10;;;;;;;;;;;21.20;47.80;;;;;;1539433;77;780;-65
2021/12/28 05:23:12;;;;;;;;;;;21.20;47.80;;;;;;1539523;77;700;-64
2021/12/28 05:25:14;;;;;;;;;;;21.30;47.90;;;;;;1539384;77;704;-65
2021/12/28 05:27:16;;;;;;;;;;;21.20;47.80;;;;;;1539371;77;829;-66
2021/12/28 05:29:18;;;;;;;;;;;21.20;47.80;;;;;;1539517;77;1134;-65
2021/12/28 05:31:20;;;;;;;;;;;21.20;47.70;;;;;;1539525;77;624;-65
2021/12/28 05:33:22;;;;;;;;;;;21.30;47.80;;;;;;1539323;77;1940;-66
2021/12/28 05:35:24;;;;;;;;;;;21.30;47.80;;;;;;1539433;77;744;-65
2021/12/28 05:37:26;;;;;;;;;;;21.20;47.70;;;;;;1539496;77;776;-65
2021/12/28 05:39:27;;;;;;;;;;;21.20;47.80;;;;;;1539446;77;1136;-65
2021/12/28 05:41:29;;;;;;;;;;;21.20;47.70;;;;;;1539518;77;680;-65
2021/12/28 05:43:31;;;;;;;;;;;21.20;47.70;;;;;;1539334;77;807;-65
2021/12/28 05:45:33;;;;;;;;;;;21.20;47.70;;;;;;1539348;77;704;-65
2021/12/28 05:47:35;;;;;;;;;;;21.30;47.80;;;;;;1539478;77;568;-65
2021/12/28 05:49:37;;;;;;;;;;;21.20;47.70;;;;;;1539421;77;1116;-66
2021/12/28 05:51:39;;;;;;;;;;;21.20;47.70;;;;;;1539520;77;819;-65
2021/12/28 05:53:41;;;;;;;;;;;21.30;47.80;;;;;;1539295;77;1973;-65
2021/12/28 05:55:43;;;;;;;;;;;21.30;47.80;;;;;;1539361;77;724;-64
2021/12/28 05:57:45;;;;;;;;;;;21.20;47.70;;;;;;1539404;77;724;-65
2021/12/28 05:59:47;;;;;;;;;;;21.30;47.80;;;;;;1539460;77;1155;-66
2021/12/28 06:01:49;;;;;;;;;;;21.20;47.70;;;;;;1539458;77;701;-65
2021/12/28 06:03:51;;;;;;;;;;;21.20;47.70;;;;;;1539628;77;754;-65
2021/12/28 06:05:53;;;;;;;;;;;21.30;47.80;;;;;;1540716;77;822;-65
2021/12/28 06:07:55;;;;;;;;;;;21.30;47.80;;;;;;1540640;77;783;-65
2021/12/28 06:09:57;;;;;;;;;;;21.30;47.80;;;;;;1540668;77;1133;-65
2021/12/28 06:11:59;;;;;;;;;;;21.30;47.80;;;;;;1540725;77;1945;-65
2021/12/28 06:14:00;;;;;;;;;;;21.30;47.80;;;;;;1540770;77;647;-65
2021/12/28 06:16:02;;;;;;;;;;;21.20;47.70;;;;;;1540656;77;732;-66
2021/12/28 06:18:04;;;;;;;;;;;21.20;47.70;;;;;;1540727;77;757;-64
2021/12/28 06:20:06;;;;;;;;;;;21.30;47.80;;;;;;1540573;77;1100;-65
2021/12/28 06:22:08;;;;;;;;;;;21.30;47.80;;;;;;1540676;77;749;-64
2021/12/28 06:24:10;;;;;;;;;;;21.30;47.80;;;;;;1540590;77;703;-65
2021/12/28 06:26:12;;;;;;;;;;;21.30;47.80;;;;;;1540687;77;799;-65
2021/12/28 06:28:14;;;;;;;;;;;21.20;47.70;;;;;;1540679;77;1126;-65
2021/12/28 06:30:16;;;;;;;;;;;21.20;47.60;;;;;;1540664;77;674;-64
2021/12/28 06:32:18;;;;;;;;;;;21.30;47.80;;;;;;1540672;76;1939;-65
2021/12/28 06:34:19;;;;;;;;;;;21.30;47.80;;;;;;1540648;76;782;-66
2021/12/28 06:36:21;;;;;;;;;;;21.20;47.60;;;;;;1540681;77;730;-65
2021/12/28 06:38:23;;;;;;;;;;;21.30;47.80;;;;;;1540601;77;1052;-64
2021/12/28 06:40:25;;;;;;;;;;;21.30;47.80;;;;;;1540527;77;791;-65
2021/12/28 06:42:27;;;;;;;;;;;21.30;47.80;;;;;;1540674;77;713;-65
2021/12/28 06:44:29;;;;;;;;;;;21.20;47.60;;;;;;1540741;77;778;-65
2021/12/28 06:46:31;;;;;;;;;;;21.20;47.60;;;;;;1540611;77;682;-65
2021/12/28 06:48:33;;;;;;;;;;;21.20;47.60;;;;;;1540729;77;1182;-65
2021/12/28 06:50:35;;;;;;;;;;;21.20;47.70;;;;;;1540617;77;703;-65
2021/12/28 06:52:37;;;;;;;;;;;21.20;47.60;;;;;;1540656;77;1952;-65
2021/12/28 06:54:39;;;;;;;;;;;21.20;47.60;;;;;;1540625;77;744;-66
2021/12/28 06:56:42;;;;;;;;;;;21.30;47.80;;;;;;1540472;77;796;-66
2021/12/28 06:58:44;;;;;;;;;;;21.20;47.60;;;;;;1540570;77;1149;-65
2021/12/28 07:00:46;;;;;;;;;;;21.20;47.60;;;;;;1540616;77;701;-65
2021/12/28 07:02:48;;;;;;;;;;;21.30;47.70;;;;;;1540657;77;696;-65
2021/12/28 07:04:52;;;;;;;;;;;21.20;47.60;;;;;;1540624;77;718;-65
2021/12/28 07:06:54;;;;;;;;;;;21.30;47.80;;;;;;1540441;77;1736;-66
2021/12/28 07:08:55;;;;;;;;;;;21.30;47.70;;;;;;1540701;77;1124;-65
2021/12/28 07:10:57;;;;;;;;;;;21.20;47.60;;;;;;1540638;77;716;-65
2021/12/28 07:12:59;;;;;;;;;;;21.30;47.70;;;;;;1540619;76;1918;-65
2021/12/28 07:15:01;;;;;;;;;;;21.20;47.60;;;;;;1540635;77;769;-65
2021/12/28 07:17:03;;;;;;;;;;;21.20;47.60;;;;;;1540623;77;704;-65
2021/12/28 07:19:10;;;;;;;;;;;21.20;47.60;;;;;;1540549;77;1461;-64
2021/12/28 07:21:09;;;;;;;;;;;21.20;47.60;;;;;;1539860;77;1516;-65
2021/12/28 07:23:10;;;;;;;;;;;21.30;47.80;;;;;;1540752;77;724;-66
2021/12/28 07:25:12;;;;;;;;;;;21.30;47.80;;;;;;1540570;77;805;-65
2021/12/28 07:27:14;;;;;;;;;;;21.20;47.60;;;;;;1540547;76;764;-65
2021/12/28 07:29:16;;;;;;;;;;;21.30;47.70;;;;;;1540663;76;1109;-65
2021/12/28 07:31:18;;;;;;;;;;;21.30;47.70;;;;;;1540602;77;676;-65
2021/12/28 07:33:21;;;;;;;;;;;21.20;47.60;;;;;;1540617;77;1929;-66
2021/12/28 07:35:23;;;;;;;;;;;21.20;47.60;;;;;;1540573;77;613;-65
2021/12/28 07:37:24;;;;;;;;;;;21.30;47.70;;;;;;1540625;77;756;-65
2021/12/28 07:39:26;;;;;;;;;;;21.20;47.60;;;;;;1540710;77;1156;-65
2021/12/28 07:41:28;;;;;;;;;;;21.30;47.70;;;;;;1540626;76;781;-65
2021/12/28 07:43:30;;;;;;;;;;;21.30;47.80;;;;;;1540678;77;637;-65
2021/12/28 07:45:32;;;;;;;;;;;21.30;47.70;;;;;;1540564;76;744;-66
2021/12/28 07:47:34;;;;;;;;;;;21.20;47.60;;;;;;1540646;77;739;-65
2021/12/28 07:49:36;;;;;;;;;;;21.20;47.60;;;;;;1540539;77;1084;-65
2021/12/28 07:51:38;;;;;;;;;;;21.30;47.70;;;;;;1540526;77;737;-65
2021/12/28 07:53:40;;;;;;;;;;;21.30;47.70;;;;;;1540646;77;1939;-65
2021/12/28 07:55:41;;;;;;;;;;;21.20;47.60;;;;;;1540678;77;689;-65
2021/12/28 07:57:43;;;;;;;;;;;21.30;47.70;;;;;;1540651;77;769;-65
2021/12/28 07:59:45;;;;;;;;;;;21.20;47.60;;;;;;1540675;77;1142;-65
2021/12/28 08:01:47;;;;;;;;;;;21.30;47.70;;;;;;1540621;77;665;-65
2021/12/28 08:03:49;;;;;;;;;;;21.30;47.70;;;;;;1540615;77;655;-66
2021/12/28 08:05:51;;;;;;;;;;;21.30;47.80;;;;;;1540591;77;739;-65
2021/12/28 08:07:53;;;;;;;;;;;21.20;47.60;;;;;;1540513;77;793;-65
2021/12/28 08:09:55;;;;;;;;;;;21.20;47.60;;;;;;1540684;77;1070;-65
2021/12/28 08:11:57;;;;;;;;;;;21.20;47.60;;;;;;1540674;77;727;-64
2021/12/28 08:13:58;;;;;;;;;;;21.20;47.60;;;;;;1540506;76;1945;-65
2021/12/28 08:16:00;;;;;;;;;;;21.20;47.50;;;;;;1540584;77;700;-65
2021/12/28 08:18:03;;;;;;;;;;;21.20;47.60;;;;;;1540558;77;662;-65
2021/12/28 08:20:06;;;;;;;;;;;21.30;47.70;;;;;;1540587;77;1074;-65
2021/12/28 08:22:08;;;;;;;;;;;21.30;47.70;;;;;;1540543;77;772;-65
2021/12/28 08:24:09;;;;;;;;;;;21.20;47.50;;;;;;1540591;77;720;-65
2021/12/28 08:26:11;;;;;;;;;;;21.30;47.60;;;;;;1540589;77;772;-65
2021/12/28 08:28:13;;;;;;;;;;;21.20;47.50;;;;;;1540597;77;1120;-65
2021/12/28 08:30:15;;;;;;;;;;;21.30;47.70;;;;;;1540699;77;769;-66
2021/12/28 08:32:17;;;;;;;;;;;21.30;47.70;;;;;;1540551;77;673;-65
2021/12/28 08:34:19;;;;;;;;;;;21.30;47.70;;;;;;1540569;77;1936;-66
2021/12/28 08:36:21;;;;;;;;;;;21.20;47.60;;;;;;1540567;77;739;-65
2021/12/28 08:38:23;;;;;;;;;;;21.20;47.60;;;;;;1540582;77;1104;-65
2021/12/28 08:40:25;;;;;;;;;;;21.30;47.70;;;;;;1540604;77;791;-65
2021/12/28 08:42:26;;;;;;;;;;;21.30;47.70;;;;;;1540596;77;770;-65
2021/12/28 08:44:28;;;;;;;;;;;21.30;47.60;;;;;;1540508;77;769;-65
2021/12/28 08:46:30;;;;;;;;;;;21.20;47.60;;;;;;1540490;77;808;-65
2021/12/28 08:48:32;;;;;;;;;;;21.30;47.60;;;;;;1540576;77;1132;-65
2021/12/28 08:50:35;;;;;;;;;;;21.30;47.70;;;;;;1540714;77;720;-65
2021/12/28 08:52:37;;;;;;;;;;;21.30;47.70;;;;;;1540590;77;725;-65
2021/12/28 08:54:39;;;;;;;;;;;21.30;47.70;;;;;;1540508;77;1926;-65
2021/12/28 08:56:41;;;;;;;;;;;21.30;47.60;;;;;;1540558;77;652;-65
2021/12/28 08:58:43;;;;;;;;;;;21.30;47.70;;;;;;1540486;77;1146;-66
2021/12/28 09:00:44;;;;;;;;;;;21.30;47.70;;;;;;1540561;77;737;-66
2021/12/28 09:02:46;;;;;;;;;;;21.30;47.70;;;;;;1540519;77;736;-65
2021/12/28 09:04:48;;;;;;;;;;;21.30;47.70;;;;;;1540600;77;705;-64
2021/12/28 09:06:50;;;;;;;;;;;21.20;47.60;;;;;;1540492;75;776;-65
2021/12/28 09:08:52;;;;;;;;;;;21.30;47.70;;;;;;1540583;77;1167;-66
2021/12/28 09:10:54;;;;;;;;;;;21.30;47.70;;;;;;1540560;77;653;-65
2021/12/28 09:12:56;;;;;;;;;;;21.20;47.60;;;;;;1540626;77;780;-65
2021/12/28 09:14:58;;;;;;;;;;;21.30;47.70;;;;;;1540448;77;1933;-64
2021/12/28 09:17:00;;;;;;;;;;;21.30;47.70;;;;;;1540626;77;696;-65
2021/12/28 09:19:02;;;;;;;;;;;21.30;47.70;;;;;;1540638;77;1207;-66
2021/12/28 09:21:04;;;;;;;;;;;21.20;47.60;;;;;;1540547;77;724;-66
2021/12/28 09:23:06;;;;;;;;;;;21.30;47.70;;;;;;1540546;76;782;-65
2021/12/28 09:25:08;;;;;;;;;;;21.30;47.70;;;;;;1540425;77;717;-65
2021/12/28 09:27:10;;;;;;;;;;;21.20;47.50;;;;;;1540594;77;701;-66
2021/12/28 09:29:12;;;;;;;;;;;21.20;47.60;;;;;;1540664;77;1063;-65
2021/12/28 09:31:14;;;;;;;;;;;21.30;47.70;;;;;;1540599;77;695;-65
2021/12/28 09:33:16;;;;;;;;;;;21.30;47.60;;;;;;1540524;77;1914;-65
2021/12/28 09:35:18;;;;;;;;;;;21.20;47.60;;;;;;1540597;77;712;-65
2021/12/28 09:37:20;;;;;;;;;;;21.30;47.70;;;;;;1540729;77;761;-65
2021/12/28 09:39:24;;;;;;;;;;;21.30;47.70;;;;;;1540725;77;1122;-65
2021/12/28 09:41:25;;;;;;;;;;;21.30;47.60;;;;;;1540515;77;1527;-65
2021/12/28 09:43:27;;;;;;;;;;;21.30;47.70;;;;;;1540768;76;669;-66
2021/12/28 09:45:29;;;;;;;;;;;21.20;47.60;;;;;;1540549;76;766;-65
2021/12/28 09:47:31;;;;;;;;;;;21.20;47.60;;;;;;1540747;77;782;-65
2021/12/28 09:49:33;;;;;;;;;;;21.20;47.60;;;;;;1540753;76;1139;-65
2021/12/28 09:51:34;;;;;;;;;;;21.30;47.70;;;;;;1540722;77;774;-65
2021/12/28 09:53:38;;;;;;;;;;;21.20;47.60;;;;;;1540721;77;1949;-65
2021/12/28 09:55:40;;;;;;;;;;;21.20;47.60;;;;;;1540494;77;626;-66
2021/12/28 09:57:42;;;;;;;;;;;21.30;47.70;;;;;;1540642;77;785;-67
2021/12/28 09:59:44;;;;;;;;;;;21.30;47.70;;;;;;1540625;77;1094;-65
2021/12/28 10:01:46;;;;;;;;;;;21.30;47.70;;;;;;1540563;77;788;-65
2021/12/28 10:03:48;;;;;;;;;;;21.30;47.70;;;;;;1540661;77;708;-65
2021/12/28 10:05:50;;;;;;;;;;;21.30;47.70;;;;;;1540479;77;782;-64
2021/12/28 10:08:00;;;;;;;;;;;21.30;47.70;;;;;;1540747;77;721;-64
2021/12/28 10:09:59;;;;;;;;;;;21.30;47.70;;;;;;1539975;77;1131;-64
2021/12/28 10:12:01;;;;;;;;;;;21.30;47.70;;;;;;1540622;76;779;-61
2021/12/28 10:14:13;;;;;;;;;;;21.20;47.60;;;;;;1540661;77;1933;-65
2021/12/28 10:16:15;;;;;;;;;;;21.30;47.70;;;;;;1540438;77;765;-64
2021/12/28 10:18:17;;;;;;;;;;;21.20;47.60;;;;;;1540717;77;1122;-65
2021/12/28 10:20:26;;;;;;;;;;;21.30;47.70;;;;;;1540639;77;709;-63
2021/12/28 10:22:35;;;;;;;;;;;21.30;47.60;;;;;;1540582;77;1159;-64
2021/12/28 10:24:37;;;;;;;;;;;21.30;47.70;;;;;;1540808;77;625;-65
2021/12/28 10:26:39;;;;;;;;;;;21.20;47.60;;;;;;1540443;77;765;-64
2021/12/28 10:28:41;;;;;;;;;;;21.30;47.80;;;;;;1540700;77;1143;-65
2021/12/28 10:30:53;;;;;;;;;;;21.30;47.70;;;;;;1540759;77;794;-64
2021/12/28 10:32:56;;;;;;;;;;;21.30;47.80;;;;;;1540662;77;720;-66
2021/12/28 10:34:59;;;;;;;;;;;21.20;47.60;;;;;;1540557;77;1925;-66
2021/12/28 10:37:02;;;;;;;;;;;21.20;47.60;;;;;;1540565;77;696;-65
2021/12/28 10:39:06;;;;;;;;;;;21.30;47.70;;;;;;1550314;71;2044;-61
2021/12/28 10:41:10;;;;;;;;;;;21.20;47.60;;;;;;1595367;73;690;-63
2021/12/28 10:43:15;;;;;;;;;;;21.30;47.70;;;;;;1559731;75;798;-63
2021/12/28 10:45:18;;;;;;;;;;;21.20;47.60;;;;;;1553577;76;724;-63
2021/12/28 10:47:24;;;;;;;;;;;21.30;47.70;;;;;;1563166;76;1082;-62
2021/12/28 10:49:39;;;;;;;;;;;21.20;47.60;;;;;;1557498;76;1186;-63
2021/12/28 10:51:43;;;;;;;;;;;21.30;47.70;;;;;;1541119;76;792;-62
2021/12/28 10:54:12;;;;;;;;;;;21.30;47.80;;;;;;1542872;76;1929;-61
2021/12/28 10:55:51;;;;;;;;;;;21.20;47.60;;;;;;1544745;74;1386;-63
2021/12/28 10:57:53;;;;;;;;;;;21.20;47.60;;;;;;1594824;74;697;-63
2021/12/28 10:59:54;;;;;;;;;;;21.30;47.80;;;;;;1594944;74;1103;-63
2021/12/28 11:01:56;;;;;;;;;;;21.30;47.80;;;;;;1594970;74;702;-63
2021/12/28 11:03:59;;;;;;;;;;;21.30;47.70;;;;;;1587207;74;754;-62
2021/12/28 11:06:03;;;;;;;;;;;21.30;47.70;;;;;;1567315;76;793;-62
2021/12/28 11:08:07;;;;;;;;;;;21.30;47.70;;;;;;1567345;75;1962;-63
2021/12/28 11:10:09;;;;;;;;;;;21.30;47.70;;;;;;1567325;74;1652;-64
2021/12/28 11:12:11;;;;;;;;;;;21.20;47.60;;;;;;1567381;76;790;-65
2021/12/28 11:14:13;;;;;;;;;;;21.20;47.60;;;;;;1567332;75;1954;-62
2021/12/28 11:16:18;;;;;;;;;;;21.20;47.60;;;;;;1567335;76;716;-63
2021/12/28 11:18:33;;;;;;;;;;;21.30;47.60;;;;;;1567061;76;1661;-64
2021/12/28 11:20:35;;;;;;;;;;;21.20;47.50;;;;;;1567454;76;1117;-63
2021/12/28 11:22:37;;;;;;;;;;;21.30;47.70;;;;;;1567481;76;761;-64
2021/12/28 11:24:40;;;;;;;;;;;21.20;47.60;;;;;;1567419;76;784;-64
2021/12/28 11:26:46;;;;;;;;;;;21.30;47.70;;;;;;1567344;76;721;-62
2021/12/28 11:29:06;;;;;;;;;;;21.30;47.70;;;;;;1567367;75;1128;-64
2021/12/28 11:31:14;;;;;;;;;;;21.20;47.60;;;;;;1567573;76;659;-62
2021/12/28 11:33:16;;;;;;;;;;;21.30;47.80;;;;;;1567344;76;728;-63
2021/12/28 11:35:18;;;;;;;;;;;21.30;47.80;;;;;;1567333;75;1929;-63
2021/12/28 11:37:22;;;;;;;;;;;21.30;47.80;;;;;;1567501;76;719;-63
2021/12/28 11:39:25;;;;;;;;;;;21.20;47.60;;;;;;1567198;75;1134;-62
2021/12/28 11:41:27;;;;;;;;;;;21.20;47.60;;;;;;1567411;76;683;-63
2021/12/28 11:43:29;;;;;;;;;;;21.20;47.60;;;;;;1567340;76;746;-63
2021/12/28 11:45:31;;;;;;;;;;;21.20;47.60;;;;;;1567394;75;725;-62
2021/12/28 11:47:33;;;;;;;;;;;21.30;47.70;;;;;;1567405;76;657;-63
2021/12/28 11:49:35;;;;;;;;;;;21.30;47.70;;;;;;1567385;76;1152;-64
2021/12/28 11:51:39;;;;;;;;;;;21.20;47.60;;;;;;1567406;75;786;-65
2021/12/28 11:53:42;;;;;;;;;;;21.20;47.60;;;;;;1567403;75;2071;-63
2021/12/28 11:55:44;;;;;;;;;;;21.30;47.70;;;;;;1567240;76;1923;-63
2021/12/28 11:57:49;;;;;;;;;;;21.20;47.50;;;;;;1567340;76;786;-63
2021/12/28 11:59:52;;;;;;;;;;;21.20;47.60;;;;;;1567305;76;1117;-62
2021/12/28 12:01:58;;;;;;;;;;;21.30;47.60;;;;;;1567403;76;804;-63
2021/12/28 12:04:00;;;;;;;;;;;21.20;47.50;;;;;;1558770;76;1733;-64
2021/12/28 12:06:02;;;;;;;;;;;21.30;47.60;;;;;;1540976;77;665;-62
2021/12/28 12:08:07;;;;;;;;;;;21.30;47.70;;;;;;1541022;77;815;-62
2021/12/28 12:10:10;;;;;;;;;;;21.30;47.60;;;;;;1540983;76;1134;-62
2021/12/28 12:12:15;;;;;;;;;;;21.20;47.50;;;;;;1541112;77;817;-64
2021/12/28 12:14:17;;;;;;;;;;;21.30;47.60;;;;;;1540886;77;1917;-63
2021/12/28 12:16:19;;;;;;;;;;;21.30;47.60;;;;;;1540985;77;811;-63